createdAt,value
2022-11-10T00:02:20.887Z,85.10
2022-11-10T00:05:06.817Z,85.03
2022-11-10T00:07:51.976Z,83.67
2022-11-10T00:10:57.154Z,84.87
2022-11-10T00:14:00.921Z,82.47
2022-11-10T00:17:02.416Z,85.13
2022-11-10T00:19:47.807Z,80.37
2022-11-10T00:22:34.989Z,79.90
2022-11-10T00:25:20.554Z,75.93
2022-11-10T00:28:05.955Z,77.97
2022-11-10T00:30:51.223Z,75.80
2022-11-10T00:33:38.983Z,77.57
2022-11-10T00:36:24.890Z,80.67
2022-11-10T00:39:11.440Z,81.20
2022-11-10T00:41:57.508Z,84.27
2022-11-10T00:44:42.977Z,81.63
2022-11-10T00:47:28.567Z,80.23
2022-11-10T00:50:14.760Z,77.60
2022-11-10T00:53:00.280Z,80.97
2022-11-10T00:55:45.966Z,75.30
2022-11-10T00:58:31.581Z,79.03
2022-11-10T01:01:19.372Z,72.97
2022-11-10T01:04:05.064Z,74.57
2022-11-10T01:06:51.870Z,72.10
2022-11-10T01:09:37.650Z,75.03
2022-11-10T01:12:23.411Z,68.83
2022-11-10T01:15:10.082Z,69.17
2022-11-10T01:17:56.474Z,70.27
2022-11-10T01:20:42.081Z,70.63
2022-11-10T01:23:27.840Z,66.07
2022-11-10T01:26:14.093Z,67.50
2022-11-10T01:28:59.767Z,67.20
2022-11-10T01:31:46.020Z,67.03
2022-11-10T01:34:31.663Z,65.33
2022-11-10T01:37:17.873Z,67.53
2022-11-10T01:40:04.642Z,66.00
2022-11-10T01:42:50.778Z,65.17
2022-11-10T01:45:52.861Z,63.97
2022-11-10T01:48:44.454Z,63.53
2022-11-10T01:51:31.829Z,64.30
2022-11-10T01:54:22.340Z,63.67
2022-11-10T01:57:12.542Z,58.13
2022-11-10T01:59:58.725Z,59.10
2022-11-10T02:02:47.744Z,58.80
2022-11-10T02:05:34.362Z,57.33
2022-11-10T02:08:21.424Z,59.40
2022-11-10T02:11:07.152Z,58.97
2022-11-10T02:13:53.646Z,60.73
2022-11-10T02:16:40.150Z,59.07
2022-11-10T02:19:28.190Z,68.80
2022-11-10T02:22:14.042Z,68.67
2022-11-10T02:25:00.319Z,73.73
2022-11-10T02:27:45.978Z,70.43
2022-11-10T02:30:31.632Z,70.57
2022-11-10T02:33:20.367Z,76.33
2022-11-10T02:36:07.089Z,76.40
2022-11-10T02:38:52.759Z,76.37
2022-11-10T02:41:38.295Z,76.10
2022-11-10T02:44:23.770Z,76.00
2022-11-10T02:47:09.594Z,76.27
2022-11-10T02:49:55.127Z,76.03
2022-11-10T02:52:40.956Z,73.50
2022-11-10T02:55:26.773Z,76.03
2022-11-10T02:58:12.528Z,76.67
2022-11-10T03:00:58.385Z,75.13
2022-11-10T03:03:43.719Z,74.37
2022-11-10T03:06:29.303Z,73.13
2022-11-10T03:09:14.571Z,73.53
2022-11-10T03:12:00.014Z,73.53
2022-11-10T03:14:45.486Z,70.17
2022-11-10T03:17:31.015Z,68.10
2022-11-10T03:20:16.703Z,68.47
2022-11-10T03:23:04.152Z,68.60
2022-11-10T03:25:49.801Z,67.03
2022-11-10T03:28:35.589Z,65.83
2022-11-10T03:31:21.126Z,65.57
2022-11-10T03:34:06.656Z,63.13
2022-11-10T03:36:52.155Z,62.10
2022-11-10T03:39:37.726Z,61.40
2022-11-10T03:42:23.133Z,61.23
2022-11-10T03:45:09.385Z,57.77
2022-11-10T03:47:55.101Z,58.33
2022-11-10T03:50:40.509Z,60.90
2022-11-10T03:53:26.179Z,58.67
2022-11-10T03:56:12.195Z,58.97
2022-11-10T03:58:57.498Z,58.60
2022-11-10T04:01:43.192Z,57.13
2022-11-10T04:04:47.253Z,58.53
2022-11-10T04:07:51.285Z,56.47
2022-11-10T04:10:36.928Z,58.40
2022-11-10T04:13:40.980Z,58.67
2022-11-10T04:16:26.882Z,56.33
2022-11-10T04:19:12.755Z,55.97
2022-11-10T04:21:58.243Z,56.07
2022-11-10T04:24:43.646Z,54.30
2022-11-10T04:27:29.159Z,53.87
2022-11-10T04:30:14.960Z,54.60
2022-11-10T04:33:00.804Z,52.83
2022-11-10T04:35:47.932Z,54.50
2022-11-10T04:38:33.920Z,52.97
2022-11-10T04:41:19.797Z,53.63
2022-11-10T04:44:06.031Z,51.47
2022-11-10T04:46:51.930Z,49.93
2022-11-10T04:49:37.802Z,50.20
2022-11-10T04:52:23.340Z,49.13
2022-11-10T04:55:09.103Z,91.00
2022-11-10T04:57:54.759Z,106.97
2022-11-10T05:00:41.387Z,105.80
2022-11-10T05:03:27.279Z,102.27
2022-11-10T05:06:13.588Z,94.00
2022-11-10T05:08:59.396Z,92.73
2022-11-10T05:11:44.947Z,88.57
2022-11-10T05:14:30.379Z,82.73
2022-11-10T05:17:15.986Z,74.57
2022-11-10T05:20:01.435Z,60.87
2022-11-10T05:23:08.206Z,59.87
2022-11-10T05:25:53.809Z,57.57
2022-11-10T05:28:41.929Z,58.45
2022-11-10T05:31:27.645Z,59.13
2022-11-10T05:34:14.410Z,56.70
2022-11-10T05:37:00.153Z,58.57
2022-11-10T05:39:45.502Z,60.28
2022-11-10T05:42:31.175Z,59.58
2022-11-10T05:45:16.960Z,60.00
2022-11-10T05:48:02.972Z,57.28
2022-11-10T05:50:49.765Z,56.22
2022-11-10T05:53:35.533Z,54.58
2022-11-10T05:56:22.182Z,61.92
2022-11-10T05:59:07.600Z,72.53
2022-11-10T06:01:52.990Z,71.05
2022-11-10T06:04:38.804Z,62.78
2022-11-10T06:07:24.598Z,55.63
2022-11-10T06:10:10.170Z,50.58
2022-11-10T06:12:55.909Z,47.88
2022-11-10T06:15:46.101Z,44.50
2022-11-10T06:18:34.809Z,43.78
2022-11-10T06:21:20.164Z,43.67
2022-11-10T06:24:05.857Z,43.55
2022-11-10T06:26:51.520Z,42.75
2022-11-10T06:29:36.962Z,43.78
2022-11-10T06:32:22.836Z,42.03
2022-11-10T06:35:08.891Z,43.63
2022-11-10T06:38:10.681Z,40.03
2022-11-10T06:40:56.072Z,39.97
2022-11-10T06:43:41.561Z,40.22
2022-11-10T06:46:27.390Z,41.55
2022-11-10T06:49:12.961Z,39.85
2022-11-10T06:51:58.556Z,41.10
2022-11-10T06:54:43.854Z,38.35
2022-11-10T06:57:29.359Z,39.53
2022-11-10T07:00:15.758Z,40.20
2022-11-10T07:03:02.189Z,39.03
2022-11-10T07:05:47.911Z,40.03
2022-11-10T07:08:33.566Z,41.33
2022-11-10T07:11:19.165Z,40.60
2022-11-10T07:14:04.765Z,42.30
2022-11-10T07:16:50.303Z,41.50
2022-11-10T07:19:35.893Z,42.88
2022-11-10T07:22:21.378Z,42.83
2022-11-10T07:25:07.359Z,42.40
2022-11-10T07:27:58.123Z,43.17
2022-11-10T07:30:43.737Z,42.95
2022-11-10T07:33:29.330Z,43.25
2022-11-10T07:36:14.906Z,46.30
2022-11-10T07:39:00.386Z,46.85
2022-11-10T07:41:49.966Z,46.63
2022-11-10T07:44:37.717Z,49.60
2022-11-10T07:47:24.670Z,50.00
2022-11-10T07:50:10.444Z,48.67
2022-11-10T07:53:14.405Z,49.35
2022-11-10T07:55:59.882Z,49.83
2022-11-10T07:58:46.977Z,49.65
2022-11-10T08:01:34.088Z,49.38
2022-11-10T08:04:19.389Z,51.42
2022-11-10T08:07:05.248Z,50.03
2022-11-10T08:09:50.927Z,51.25
2022-11-10T08:12:36.379Z,52.95
2022-11-10T08:15:22.268Z,52.15
2022-11-10T08:18:16.891Z,51.78
2022-11-10T08:21:03.988Z,51.03
2022-11-10T08:23:49.942Z,52.53
2022-11-10T08:26:36.168Z,48.80
2022-11-10T08:29:21.370Z,48.17
2022-11-10T08:32:06.991Z,50.10
2022-11-10T08:34:52.798Z,49.72
2022-11-10T08:37:38.130Z,48.30
2022-11-10T08:40:27.572Z,46.88
2022-11-10T08:43:14.499Z,47.17
2022-11-10T08:46:02.002Z,45.47
2022-11-10T08:48:48.231Z,46.50
2022-11-10T08:51:38.906Z,46.88
2022-11-10T08:54:25.088Z,46.70
2022-11-10T08:57:10.705Z,47.83
2022-11-10T08:59:56.334Z,49.22
2022-11-10T09:02:42.090Z,50.92
2022-11-10T09:05:27.555Z,49.40
2022-11-10T09:08:13.664Z,50.15
2022-11-10T09:11:02.577Z,51.35
2022-11-10T09:13:48.420Z,47.88
2022-11-10T09:16:36.816Z,50.08
2022-11-10T09:19:22.524Z,51.58
2022-11-10T09:22:10.268Z,51.00
2022-11-10T09:24:55.729Z,48.58
2022-11-10T09:27:41.476Z,49.33
2022-11-10T09:30:27.058Z,48.92
2022-11-10T09:33:13.018Z,48.15
2022-11-10T09:35:59.810Z,49.70
2022-11-10T09:38:45.349Z,47.13
2022-11-10T09:41:31.153Z,46.10
2022-11-10T09:44:30.178Z,45.63
2022-11-10T09:47:55.851Z,46.08
2022-11-10T09:50:31.125Z,47.33
2022-11-10T09:53:24.774Z,48.05
2022-11-10T09:56:18.812Z,47.47
2022-11-10T09:59:18.637Z,46.60
2022-11-10T10:02:16.431Z,45.00
2022-11-10T10:05:32.975Z,46.53
2022-11-10T10:08:39.743Z,43.42
2022-11-10T10:11:48.651Z,44.42
2022-11-10T10:14:52.593Z,43.33
2022-11-10T10:17:49.467Z,43.42
2022-11-10T10:21:00.759Z,43.70
2022-11-10T10:24:19.851Z,45.65
2022-11-10T10:27:06.180Z,44.17
2022-11-10T10:29:52.278Z,45.10
2022-11-10T10:32:37.809Z,43.13
2022-11-10T10:35:23.484Z,42.97
2022-11-10T10:38:27.428Z,43.85
2022-11-10T10:41:25.209Z,41.33
2022-11-10T10:44:13.724Z,41.58
2022-11-10T10:47:01.265Z,40.65
2022-11-10T10:49:47.022Z,42.17
2022-11-10T10:52:33.118Z,42.15
2022-11-10T10:55:18.803Z,42.72
2022-11-10T10:58:26.651Z,41.17
2022-11-10T11:01:15.549Z,42.42
2022-11-10T11:04:04.977Z,42.22
2022-11-10T11:06:58.360Z,40.80
2022-11-10T11:09:44.722Z,41.65
2022-11-10T11:12:33.561Z,40.90
2022-11-10T11:15:21.792Z,40.90
2022-11-10T11:18:16.082Z,38.67
2022-11-10T11:21:35.123Z,36.85
2022-11-10T11:24:39.038Z,35.42
2022-11-10T11:27:43.358Z,37.35
2022-11-10T11:30:42.581Z,36.85
2022-11-10T11:33:49.772Z,38.75
2022-11-10T11:37:05.366Z,37.53
2022-11-10T11:40:05.082Z,36.67
2022-11-10T11:43:17.785Z,36.22
2022-11-10T11:46:06.270Z,33.80
2022-11-10T11:49:15.302Z,36.08
2022-11-10T11:52:27.807Z,34.08
2022-11-10T11:55:25.758Z,35.33
2022-11-10T11:58:11.363Z,34.92
2022-11-10T12:01:08.986Z,34.22
2022-11-10T12:04:10.302Z,33.17
2022-11-10T12:07:05.095Z,32.85
2022-11-10T12:09:57.421Z,32.15
2022-11-10T12:13:25.104Z,33.78
2022-11-10T12:16:20.400Z,32.05
2022-11-10T12:19:41.540Z,31.60
2022-11-10T12:22:42.613Z,32.13
2022-11-10T12:25:40.415Z,31.63
2022-11-10T12:28:35.041Z,32.83
2022-11-10T12:31:26.096Z,31.55
2022-11-10T12:34:36.032Z,33.53
2022-11-10T12:37:31.414Z,32.33
2022-11-10T12:40:21.994Z,31.88
2022-11-10T12:43:18.299Z,31.10
2022-11-10T12:46:08.761Z,30.67
2022-11-10T12:49:06.129Z,30.80
2022-11-10T12:51:57.685Z,32.15
2022-11-10T12:54:45.568Z,29.98
2022-11-10T12:57:33.205Z,31.35
2022-11-10T13:00:38.309Z,31.05
2022-11-10T13:03:50.305Z,29.38
2022-11-10T13:06:37.056Z,31.20
2022-11-10T13:09:31.963Z,30.60
2022-11-10T13:12:21.276Z,31.33
2022-11-10T13:15:39.004Z,30.35
2022-11-10T13:18:45.015Z,32.63
2022-11-10T13:21:53.330Z,32.03
2022-11-10T13:24:40.921Z,31.80
2022-11-10T13:27:44.233Z,32.25
2022-11-10T13:30:45.015Z,30.85
2022-11-10T13:33:35.490Z,32.03
2022-11-10T13:36:36.911Z,32.95
2022-11-10T13:39:27.027Z,34.17
2022-11-10T13:42:24.141Z,32.95
2022-11-10T13:45:33.850Z,31.83
2022-11-10T13:48:58.891Z,30.58
2022-11-10T13:52:06.342Z,29.63
2022-11-10T13:55:31.171Z,31.98
2022-11-10T13:58:35.437Z,29.92
2022-11-10T14:01:26.938Z,29.95
2022-11-10T14:04:40.398Z,30.90
2022-11-10T14:07:30.259Z,30.10
2022-11-10T14:10:26.616Z,29.33
2022-11-10T14:13:17.728Z,28.63
2022-11-10T14:16:03.796Z,29.88
2022-11-10T14:18:55.726Z,29.70
2022-11-10T14:21:49.974Z,30.52
2022-11-10T14:24:49.476Z,29.67
2022-11-10T14:27:37.213Z,29.20
2022-11-10T14:30:28.274Z,29.50
2022-11-10T14:33:15.260Z,30.42
2022-11-10T14:36:06.386Z,30.63
2022-11-10T14:38:53.373Z,29.80
2022-11-10T14:41:46.734Z,29.42
2022-11-10T14:44:34.200Z,28.85
2022-11-10T14:47:26.474Z,29.10
2022-11-10T14:50:18.220Z,30.15
2022-11-10T14:53:29.401Z,29.00
2022-11-10T14:56:19.689Z,29.05
2022-11-10T14:59:07.438Z,27.95
2022-11-10T15:01:59.046Z,28.60
2022-11-10T15:04:46.338Z,27.75
2022-11-10T15:07:32.296Z,28.40
2022-11-10T15:10:22.055Z,27.45
2022-11-10T15:13:13.608Z,27.55
2022-11-10T15:16:28.488Z,28.40
2022-11-10T15:19:24.339Z,28.08
2022-11-10T15:22:13.078Z,27.35
2022-11-10T15:25:08.673Z,27.15
2022-11-10T15:28:04.994Z,28.33
2022-11-10T15:30:52.926Z,27.05
2022-11-10T15:33:45.336Z,28.20
2022-11-10T15:36:34.518Z,27.60
2022-11-10T15:39:25.358Z,27.63
2022-11-10T15:42:24.837Z,27.73
2022-11-10T15:45:10.415Z,27.25
2022-11-10T15:47:56.255Z,26.92
2022-11-10T15:50:44.231Z,27.30
2022-11-10T15:53:38.567Z,27.27
2022-11-10T15:56:25.465Z,28.02
2022-11-10T15:59:10.992Z,28.08
2022-11-10T16:01:56.970Z,27.88
2022-11-10T16:04:42.236Z,28.33
2022-11-10T16:07:27.744Z,28.77
2022-11-10T16:10:13.165Z,28.10
2022-11-10T16:12:58.799Z,28.80
2022-11-10T16:15:45.612Z,28.00
2022-11-10T16:18:31.432Z,27.95
2022-11-10T16:21:23.486Z,27.10
2022-11-10T16:24:09.629Z,29.70
2022-11-10T16:26:55.538Z,28.60
2022-11-10T16:29:42.621Z,26.90
2022-11-10T16:32:28.412Z,29.00
2022-11-10T16:35:14.757Z,28.42
2022-11-10T16:38:00.599Z,27.40
2022-11-10T16:40:54.642Z,28.38
2022-11-10T16:43:40.149Z,29.58
2022-11-10T16:51:00.664Z,34.97
2022-11-10T16:53:46.959Z,35.53
2022-11-10T16:56:32.172Z,36.45
2022-11-10T16:59:17.790Z,38.17
2022-11-10T17:06:30.065Z,37.42
2022-11-10T17:09:25.611Z,37.78
2022-11-10T17:12:14.915Z,37.60
2022-11-10T17:15:01.750Z,37.97
2022-11-10T17:17:51.546Z,37.05
2022-11-10T17:20:40.141Z,35.65
2022-11-10T17:23:26.771Z,34.05
2022-11-10T17:26:14.928Z,34.13
2022-11-10T17:29:00.516Z,32.53
2022-11-10T17:33:29.082Z,32.47
2022-11-10T17:36:18.815Z,34.67
2022-11-10T17:39:05.829Z,36.55
2022-11-10T17:41:51.702Z,37.88
2022-11-10T17:44:45.775Z,38.05
2022-11-10T17:47:42.175Z,37.45
2022-11-10T17:50:27.719Z,38.08
2022-11-10T17:53:28.321Z,37.83
2022-11-10T17:56:14.079Z,37.85
2022-11-10T17:58:59.941Z,37.45
2022-11-10T18:01:45.789Z,38.60
2022-11-10T18:04:31.784Z,37.42
2022-11-10T18:07:17.363Z,36.88
2022-11-10T18:10:02.953Z,37.80
2022-11-10T18:12:48.838Z,37.55
2022-11-10T18:15:34.247Z,36.40
2022-11-10T18:18:20.081Z,37.80
2022-11-10T18:21:12.459Z,38.60
2022-11-10T18:23:57.946Z,38.97
2022-11-10T18:26:43.519Z,39.83
2022-11-10T18:29:29.656Z,38.83
2022-11-10T18:32:15.193Z,37.72
2022-11-10T18:35:00.703Z,40.17
2022-11-10T18:37:46.303Z,39.72
2022-11-10T18:40:32.885Z,39.50
2022-11-10T18:43:18.261Z,38.95
2022-11-10T18:46:03.766Z,39.67
2022-11-10T18:48:49.206Z,40.42
2022-11-10T18:51:34.954Z,42.10
2022-11-10T18:54:20.552Z,44.70
2022-11-10T18:57:05.948Z,41.70
2022-11-10T18:59:51.861Z,43.30
2022-11-10T19:02:40.628Z,44.03
2022-11-10T19:05:25.925Z,44.15
2022-11-10T19:08:11.407Z,44.70
2022-11-10T19:10:57.590Z,44.95
2022-11-10T19:13:44.085Z,46.95
2022-11-10T19:16:30.308Z,48.25
2022-11-10T19:19:16.111Z,48.15
2022-11-10T19:22:01.552Z,49.65
2022-11-10T19:25:06.599Z,50.58
2022-11-10T19:27:52.802Z,52.10
2022-11-10T19:30:39.395Z,52.00
2022-11-10T19:33:25.165Z,52.63
2022-11-10T19:36:29.377Z,53.47
2022-11-10T19:39:15.556Z,53.00
2022-11-10T19:42:01.240Z,54.08
2022-11-10T19:44:47.029Z,53.35
2022-11-10T19:47:32.684Z,53.28
2022-11-10T19:50:18.247Z,51.60
2022-11-10T19:53:03.880Z,53.15
2022-11-10T19:55:49.409Z,51.08
2022-11-10T19:58:39.196Z,51.72
2022-11-10T20:01:26.415Z,50.97
2022-11-10T20:04:12.608Z,50.42
2022-11-10T20:07:16.644Z,50.95
2022-11-10T20:10:02.349Z,50.67
2022-11-10T20:12:47.960Z,52.17
2022-11-10T20:15:37.906Z,50.80
2022-11-10T20:18:23.970Z,52.60
2022-11-10T20:21:13.588Z,50.75
2022-11-10T20:23:59.004Z,49.92
2022-11-10T20:26:44.729Z,50.35
2022-11-10T20:29:30.036Z,50.88
2022-11-10T20:32:15.906Z,51.28
2022-11-10T20:35:01.464Z,51.22
2022-11-10T20:37:47.144Z,49.33
2022-11-10T20:40:48.641Z,49.92
2022-11-10T20:43:36.152Z,50.83
2022-11-10T20:46:48.399Z,50.10
2022-11-10T20:49:28.623Z,49.97
2022-11-10T20:52:14.519Z,51.70
2022-11-10T20:55:01.624Z,49.13
2022-11-10T20:57:47.248Z,49.13
2022-11-10T21:00:33.046Z,50.25
2022-11-10T21:03:18.698Z,50.15
2022-11-10T21:06:05.526Z,54.17
2022-11-10T21:08:51.432Z,58.90
2022-11-10T21:11:55.679Z,56.83
2022-11-10T21:14:41.389Z,58.63
2022-11-10T21:17:27.137Z,59.63
2022-11-10T21:20:13.949Z,62.42
2022-11-10T21:23:03.387Z,61.65
2022-11-10T21:25:57.596Z,63.30
2022-11-10T21:28:43.528Z,62.42
2022-11-10T21:31:30.611Z,58.25
2022-11-10T21:34:16.232Z,57.88
2022-11-10T21:37:01.772Z,57.05
2022-11-10T21:39:47.294Z,56.50
2022-11-10T21:42:35.553Z,55.53
2022-11-10T21:45:22.217Z,55.90
2022-11-10T21:48:08.554Z,55.22
2022-11-10T21:51:02.721Z,54.55
2022-11-10T21:53:48.631Z,54.92
2022-11-10T21:56:34.363Z,57.30
2022-11-10T21:59:19.663Z,56.63
2022-11-10T22:02:05.766Z,57.45
2022-11-10T22:04:51.557Z,58.70
2022-11-10T22:07:38.740Z,56.53
2022-11-10T22:10:42.640Z,57.63
2022-11-10T22:13:46.364Z,54.67
2022-11-10T22:17:05.498Z,56.08
2022-11-10T22:19:51.119Z,54.42
2022-11-10T22:22:36.643Z,56.85
2022-11-10T22:25:22.164Z,55.88
2022-11-10T22:28:08.083Z,56.47
2022-11-10T22:30:53.657Z,58.80
2022-11-10T22:33:40.822Z,58.58
2022-11-10T22:36:26.608Z,56.83
2022-11-10T22:39:12.356Z,55.38
2022-11-10T22:42:16.616Z,55.35
2022-11-10T22:45:02.157Z,55.85
2022-11-10T22:48:06.091Z,55.67
2022-11-10T22:50:59.669Z,56.92
2022-11-10T22:53:45.619Z,58.17
2022-11-10T22:56:32.974Z,59.30
2022-11-10T22:59:19.501Z,60.50
2022-11-10T23:02:04.807Z,56.28
2022-11-10T23:04:50.399Z,58.17
2022-11-10T23:07:36.003Z,57.80
2022-11-10T23:10:21.554Z,56.75
2022-11-10T23:13:07.204Z,56.38
2022-11-10T23:15:54.342Z,57.28
2022-11-10T23:18:41.780Z,55.47
2022-11-10T23:21:30.144Z,55.28
2022-11-10T23:24:18.328Z,57.58
2022-11-10T23:27:04.197Z,57.65
2022-11-10T23:29:49.691Z,58.83
2022-11-10T23:32:35.126Z,57.75
2022-11-10T23:35:20.605Z,61.40
2022-11-10T23:38:06.172Z,58.85
2022-11-10T23:40:56.119Z,59.30
2022-11-10T23:43:42.507Z,59.30
2022-11-10T23:46:28.314Z,57.60
2022-11-10T23:49:13.698Z,59.75
2022-11-10T23:51:59.143Z,59.33
2022-11-10T23:54:44.800Z,57.70
2022-11-10T23:57:30.124Z,57.58
